Time;durP1;ratioP1;P1;durP2;ratioP2;P2;SDS_P1;SDS_P2;PMS_P1;PMS_P2;Temp;Humidity;BMP_temperature;BMP_pressure;BME280_temperature;BME280_humidity;BME280_pressure;Samples;Min_cycle;Max_cycle;Signal;HPM_P1;HPM_P2
2024/01/19 00:02:15;;;;;;;6.10;3.45;;;;;;;-3.17;100.00;101327.94;4959549;29;20090;-91
2024/01/19 00:04:40;;;;;;;5.80;3.67;;;;;;;-3.15;100.00;101333.06;4960432;29;20027;-91
2024/01/19 00:07:05;;;;;;;6.45;3.40;;;;;;;-3.18;100.00;101323.66;4955919;29;20038;-91
2024/01/19 00:09:31;;;;;;;4.40;3.03;;;;;;;-3.16;100.00;101329.69;4955400;29;20095;-91
2024/01/19 00:11:56;;;;;;;5.90;3.22;;;;;;;-3.15;100.00;101323.81;4955874;29;20032;-90
2024/01/19 00:14:21;;;;;;;4.45;3.00;;;;;;;-3.15;100.00;101328.88;4955278;29;20070;-91
2024/01/19 00:16:47;;;;;;;5.63;3.40;;;;;;;-3.15;100.00;101333.97;4955620;29;20118;-90
2024/01/19 00:19:12;;;;;;;4.22;3.00;;;;;;;-3.17;100.00;101330.47;4955407;29;20047;-91
2024/01/19 00:21:42;;;;;;;5.40;3.05;;;;;;;-3.18;100.00;101331.28;4955830;29;20125;-91
2024/01/19 00:24:08;;;;;;;4.55;3.00;;;;;;;-3.20;100.00;101342.16;4955529;29;20040;-91
2024/01/19 00:26:33;;;;;;;4.57;3.00;;;;;;;-3.19;100.00;101342.22;4955517;29;20034;-90
2024/01/19 00:28:58;;;;;;;5.38;3.00;;;;;;;-3.26;100.00;101325.81;4955228;29;20069;-91
2024/01/19 00:31:26;;;;;;;3.85;2.55;;;;;;;-3.26;100.00;101335.97;4935904;29;20030;-90
2024/01/19 00:33:51;;;;;;;3.97;2.60;;;;;;;-3.29;100.00;101329.88;4936151;28;20044;-90
2024/01/19 00:36:16;;;;;;;4.05;2.60;;;;;;;-3.19;100.00;101357.44;4935982;29;20024;-90
2024/01/19 00:38:43;;;;;;;4.90;2.80;;;;;;;-3.27;100.00;101348.59;4936173;29;20051;-90
2024/01/19 00:41:08;;;;;;;6.45;3.00;;;;;;;-3.25;100.00;101352.09;4935997;29;20395;-90
2024/01/19 00:43:33;;;;;;;4.15;2.90;;;;;;;-3.23;100.00;101354.69;4936173;29;20023;-91
2024/01/19 00:45:59;;;;;;;4.20;2.80;;;;;;;-3.38;100.00;101335.38;4936479;29;20079;-91
2024/01/19 00:48:24;;;;;;;4.82;3.10;;;;;;;-3.28;100.00;101360.44;4936504;29;20028;-90
2024/01/19 00:50:49;;;;;;;5.97;3.10;;;;;;;-3.30;100.00;101364.56;4936298;29;20039;-90
2024/01/19 00:53:14;;;;;;;4.70;2.88;;;;;;;-3.28;100.00;101367.16;4937922;29;20035;-90
2024/01/19 00:55:40;;;;;;;4.13;2.70;;;;;;;-3.27;100.00;101372.34;4942613;29;20047;-90
2024/01/19 00:58:05;;;;;;;3.83;2.58;;;;;;;-3.27;100.00;101374.88;4951123;29;20457;-90
2024/01/19 01:00:30;;;;;;;4.15;2.60;;;;;;;-3.28;100.00;101362.09;4962359;28;20073;-90
2024/01/19 01:02:57;;;;;;;5.20;2.70;;;;;;;-3.25;100.00;101372.41;4961970;29;20364;-90
2024/01/19 01:05:22;;;;;;;4.68;2.70;;;;;;;-3.24;100.00;101360.56;4961478;29;20481;-91
2024/01/19 01:07:47;;;;;;;3.75;2.60;;;;;;;-3.22;100.00;101367.47;4962254;28;20111;-90
2024/01/19 01:10:13;;;;;;;3.83;2.47;;;;;;;-3.16;100.00;101366.91;4962284;28;20379;-90
2024/01/19 01:12:38;;;;;;;3.28;2.30;;;;;;;-3.17;100.00;101370.25;4979640;28;20051;-90
2024/01/19 01:15:04;;;;;;;3.53;2.40;;;;;;;-3.12;100.00;101374.75;4965753;28;20031;-90
2024/01/19 01:17:29;;;;;;;4.47;2.55;;;;;;;-3.10;100.00;101373.13;4961620;28;20082;-91
2024/01/19 01:19:54;;;;;;;3.47;2.38;;;;;;;-3.12;100.00;101364.59;4962073;28;20144;-90
2024/01/19 01:22:20;;;;;;;2.78;2.20;;;;;;;-3.07;100.00;101380.06;4961437;28;20119;-90
2024/01/19 01:24:45;;;;;;;3.25;2.30;;;;;;;-3.06;100.00;101376.72;4961178;28;20038;-90
2024/01/19 01:27:10;;;;;;;3.97;2.38;;;;;;;-3.10;100.00;101377.34;4961035;29;20031;-90
2024/01/19 01:29:35;;;;;;;2.50;2.10;;;;;;;-3.06;100.00;101379.25;4961086;29;20035;-91
2024/01/19 01:32:01;;;;;;;2.45;2.08;;;;;;;-3.03;100.00;101389.53;4961417;28;20042;-89
2024/01/19 01:34:26;;;;;;;2.47;1.95;;;;;;;-3.04;100.00;101384.41;4961517;28;20026;-90
2024/01/19 01:36:51;;;;;;;4.18;2.30;;;;;;;-3.05;100.00;101378.47;4961400;28;20386;-90
2024/01/19 01:39:17;;;;;;;2.92;2.40;;;;;;;-3.14;100.00;101373.78;4961369;29;20033;-91
2024/01/19 01:41:44;;;;;;;3.83;2.45;;;;;;;-3.08;100.00;101385.91;4962350;29;20031;-90
2024/01/19 01:44:10;;;;;;;4.20;2.70;;;;;;;-3.02;100.00;101393.81;4961383;29;20023;-90
2024/01/19 01:46:35;;;;;;;4.72;2.42;;;;;;;-2.99;100.00;101390.59;4961529;28;20045;-91
2024/01/19 01:49:01;;;;;;;4.70;2.80;;;;;;;-3.00;100.00;101393.94;4961443;28;20027;-90
2024/01/19 01:51:26;;;;;;;3.33;2.45;;;;;;;-2.96;100.00;101394.16;4961581;29;20027;-90
2024/01/19 01:53:52;;;;;;;4.22;2.60;;;;;;;-2.96;100.00;101398.34;4961639;29;20067;-90
2024/01/19 01:56:17;;;;;;;4.03;2.70;;;;;;;-2.99;100.00;101403.28;4961819;28;20043;-90
2024/01/19 01:58:43;;;;;;;4.20;2.70;;;;;;;-2.99;100.00;101406.69;4962008;28;20031;-91
2024/01/19 02:01:09;;;;;;;4.82;2.70;;;;;;;-3.03;100.00;101402.25;4961621;28;20432;-90
2024/01/19 02:03:36;;;;;;;5.20;2.80;;;;;;;-3.06;100.00;101412.28;4961784;28;20059;-90
2024/01/19 02:06:01;;;;;;;3.30;2.60;;;;;;;-3.14;100.00;101404.25;4958385;28;20026;-90
2024/01/19 02:08:27;;;;;;;3.92;2.65;;;;;;;-3.16;100.00;101402.47;4959092;29;20110;-91
2024/01/19 02:10:52;;;;;;;5.38;2.65;;;;;;;-3.26;100.00;101393.50;4959242;29;20078;-91
2024/01/19 02:13:17;;;;;;;4.30;2.78;;;;;;;-3.17;100.00;101413.41;4959317;29;20098;-90
2024/01/19 02:15:43;;;;;;;6.78;2.80;;;;;;;-3.17;100.00;101421.03;4959908;29;20043;-90
2024/01/19 02:18:08;;;;;;;5.60;2.70;;;;;;;-3.22;100.00;101425.88;4959725;29;20475;-91
2024/01/19 02:20:34;;;;;;;4.57;2.65;;;;;;;-3.20;100.00;101431.00;4961791;29;20032;-90
2024/01/19 02:23:02;;;;;;;4.53;2.72;;;;;;;-3.22;100.00;101441.09;4970806;29;20062;-91
2024/01/19 02:25:28;;;;;;;3.70;2.67;;;;;;;-3.26;100.00;101432.44;4960298;29;20039;-90
2024/01/19 02:27:53;;;;;;;4.55;2.80;;;;;;;-3.33;100.00;101427.84;4959440;29;20034;-90
2024/01/19 02:30:19;;;;;;;5.70;2.83;;;;;;;-3.37;100.00;101425.94;4959977;29;20183;-90
2024/01/19 02:32:44;;;;;;;4.18;2.70;;;;;;;-3.33;100.00;101442.22;4960970;28;20138;-90
2024/01/19 02:35:09;;;;;;;4.90;2.75;;;;;;;-3.35;100.00;101446.34;4962878;29;20034;-90
2024/01/19 02:37:35;;;;;;;4.10;2.70;;;;;;;-3.37;100.00;101445.38;4963923;29;20058;-90
2024/01/19 02:40:00;;;;;;;3.42;2.10;;;;;;;-3.45;100.00;101439.91;4966640;29;20039;-90
2024/01/19 02:42:25;;;;;;;3.85;2.40;;;;;;;-3.42;100.00;101448.56;4974362;29;20015;-89
2024/01/19 02:44:51;;;;;;;3.88;2.50;;;;;;;-3.46;100.00;101448.31;4963339;29;20102;-90
2024/01/19 02:47:16;;;;;;;3.30;2.30;;;;;;;-3.41;100.00;101463.00;4957460;29;20027;-90
2024/01/19 02:49:41;;;;;;;2.75;2.22;;;;;;;-3.45;100.00;101456.03;4957517;29;20165;-90
2024/01/19 02:52:07;;;;;;;2.85;2.10;;;;;;;-3.45;100.00;101452.59;4957048;29;20031;-91
2024/01/19 02:54:32;;;;;;;3.17;2.03;;;;;;;-3.36;100.00;101465.75;4957403;29;20023;-91
2024/01/19 02:56:57;;;;;;;2.65;2.00;;;;;;;-3.34;100.00;101466.72;4957290;29;20579;-91
2024/01/19 02:59:23;;;;;;;2.33;2.13;;;;;;;-3.31;100.00;101466.88;4956778;29;20035;-90
2024/01/19 03:01:48;;;;;;;3.20;2.17;;;;;;;-3.31;100.00;101471.97;4957213;29;20023;-90
2024/01/19 03:04:13;;;;;;;2.50;2.00;;;;;;;-3.28;100.00;101476.31;4957470;29;20031;-91
2024/01/19 03:06:39;;;;;;;2.92;2.00;;;;;;;-3.29;100.00;101479.66;4956681;29;20114;-91
2024/01/19 03:09:04;;;;;;;2.80;2.17;;;;;;;-3.31;100.00;101468.53;4956849;29;20046;-90
2024/01/19 03:11:30;;;;;;;2.67;2.10;;;;;;;-3.26;100.00;101477.28;4956849;29;20113;-91
2024/01/19 03:13:55;;;;;;;2.20;2.00;;;;;;;-3.27;100.00;101480.59;4956793;29;20031;-90
2024/01/19 03:16:20;;;;;;;2.83;2.20;;;;;;;-3.25;100.00;101484.09;4956606;28;20030;-91
2024/01/19 03:18:46;;;;;;;2.75;2.15;;;;;;;-3.28;100.00;101463.63;4956909;29;20031;-91
2024/01/19 03:21:12;;;;;;;2.85;2.00;;;;;;;-3.26;100.00;101474.75;4956378;29;20023;-90
2024/01/19 03:23:37;;;;;;;2.77;2.20;;;;;;;-3.27;100.00;101471.34;4956963;29;20110;-91
2024/01/19 03:26:03;;;;;;;2.30;2.10;;;;;;;-3.24;100.00;101472.25;4956438;29;20083;-90
2024/01/19 03:28:28;;;;;;;2.10;1.90;;;;;;;-3.21;100.00;101490.19;4956963;29;20033;-90
2024/01/19 03:30:53;;;;;;;2.45;2.08;;;;;;;-3.27;100.00;101484.03;4963480;29;20086;-91
2024/01/19 03:33:20;;;;;;;2.03;1.83;;;;;;;-3.20;100.00;101486.88;4965482;29;20124;-90
2024/01/19 03:35:45;;;;;;;2.15;1.95;;;;;;;-3.19;100.00;101486.09;4956884;29;20031;-90
2024/01/19 03:38:11;;;;;;;3.28;2.30;;;;;;;-3.19;100.00;101486.94;4956525;29;20460;-90
2024/01/19 03:40:36;;;;;;;3.25;2.33;;;;;;;-3.21;100.00;101475.84;4961813;29;20324;-91
2024/01/19 03:43:02;;;;;;;5.00;2.50;;;;;;;-3.30;100.00;101471.16;4956291;29;20024;-90
2024/01/19 03:45:27;;;;;;;4.05;2.70;;;;;;;-3.23;100.00;101487.59;4956442;29;20502;-91
2024/01/19 03:47:52;;;;;;;4.22;2.40;;;;;;;-3.23;100.00;101486.72;4956742;29;20039;-90
2024/01/19 03:50:18;;;;;;;5.07;2.28;;;;;;;-3.26;100.00;101485.75;4956397;29;20035;-90
2024/01/19 03:52:44;;;;;;;3.00;2.35;;;;;;;-3.22;100.00;101489.34;4956228;29;20451;-91
2024/01/19 03:55:10;;;;;;;3.20;2.50;;;;;;;-3.17;100.00;101499.72;4956262;29;20106;-90
2024/01/19 03:57:36;;;;;;;4.72;3.08;;;;;;;-3.25;100.00;101484.09;4956478;29;20031;-91
2024/01/19 04:00:01;;;;;;;4.30;2.92;;;;;;;-3.18;100.00;101490.38;4955808;29;20408;-90
2024/01/19 04:02:26;;;;;;;3.72;2.95;;;;;;;-3.15;100.00;101495.56;4956163;29;20029;-91
2024/01/19 04:04:53;;;;;;;4.90;2.90;;;;;;;-3.20;100.00;101487.72;4955867;29;20023;-91
2024/01/19 04:07:18;;;;;;;3.83;2.88;;;;;;;-3.14;100.00;101503.28;4955981;29;20026;-91
2024/01/19 04:09:44;;;;;;;4.45;2.63;;;;;;;-3.14;100.00;101490.59;4955767;29;20476;-91
2024/01/19 04:12:14;;;;;;;5.32;3.00;;;;;;;-3.15;100.00;101498.13;4955896;29;20117;-91
2024/01/19 04:14:41;;;;;;;4.53;3.20;;;;;;;-3.15;100.00;101505.72;4955551;29;20027;-91
2024/01/19 04:17:07;;;;;;;5.03;3.20;;;;;;;-3.16;100.00;101504.03;4955787;29;20035;-90
2024/01/19 04:19:33;;;;;;;4.68;3.22;;;;;;;-3.15;100.00;101508.28;4956018;29;20028;-90
2024/01/19 04:21:58;;;;;;;5.32;3.83;;;;;;;-3.20;100.00;101505.50;4956326;29;20046;-91
2024/01/19 04:24:24;;;;;;;7.13;3.80;;;;;;;-3.14;100.00;101513.47;4955759;29;20472;-90
2024/01/19 04:26:50;;;;;;;6.17;3.67;;;;;;;-3.13;100.00;101522.81;4955980;29;20023;-90
2024/01/19 04:29:15;;;;;;;9.52;4.30;;;;;;;-3.09;100.00;101518.75;4954756;28;20805;-90
2024/01/19 04:31:40;;;;;;;9.82;4.97;;;;;;;-3.08;100.00;101520.50;4955890;29;20110;-91
2024/01/19 04:34:05;;;;;;;10.00;4.80;;;;;;;-3.05;100.00;101528.31;4955332;28;20058;-91
2024/01/19 04:36:31;;;;;;;8.20;4.22;;;;;;;-3.08;100.00;101520.50;4955627;29;20051;-91
2024/01/19 04:38:56;;;;;;;11.07;4.32;;;;;;;-3.06;100.00;101525.66;4955652;29;20070;-91
2024/01/19 04:41:21;;;;;;;6.72;4.05;;;;;;;-3.11;100.00;101528.84;4955605;29;20220;-91
2024/01/19 04:43:47;;;;;;;8.20;3.90;;;;;;;-3.12;100.00;101531.28;4955781;29;20031;-91
2024/01/19 04:46:12;;;;;;;4.75;3.60;;;;;;;-3.12;100.00;101534.72;4955517;29;20023;-91
2024/01/19 04:48:37;;;;;;;5.28;3.60;;;;;;;-3.13;100.00;101545.69;4955518;29;20078;-91
2024/01/19 04:51:04;;;;;;;5.63;3.75;;;;;;;-3.14;100.00;101549.00;4955278;29;20042;-90
2024/01/19 04:53:29;;;;;;;5.25;3.15;;;;;;;-3.17;100.00;101553.91;4955399;29;20027;-91
2024/01/19 04:55:54;;;;;;;6.55;3.13;;;;;;;-3.17;100.00;101558.13;4955567;29;20094;-91
2024/01/19 04:58:20;;;;;;;4.93;3.10;;;;;;;-3.16;100.00;101554.81;4955250;29;20023;-90
2024/01/19 05:00:46;;;;;;;4.45;3.13;;;;;;;-3.21;100.00;101557.09;4955953;29;20023;-91
2024/01/19 05:03:12;;;;;;;5.13;3.30;;;;;;;-3.18;100.00;101564.00;4955608;29;20042;-91
2024/01/19 05:05:38;;;;;;;5.95;3.33;;;;;;;-3.19;100.00;101562.25;4955543;29;20019;-91
2024/01/19 05:08:03;;;;;;;5.80;3.10;;;;;;;-3.20;100.00;101553.75;4955181;28;20019;-90
2024/01/19 05:10:28;;;;;;;4.75;3.20;;;;;;;-3.24;100.00;101545.88;4955524;29;20039;-90
2024/01/19 05:12:54;;;;;;;5.30;3.55;;;;;;;-3.22;100.00;101559.53;4954760;29;20075;-89
2024/01/19 05:15:19;;;;;;;4.85;3.20;;;;;;;-3.23;100.00;101567.94;4954991;29;20031;-91
2024/01/19 05:17:44;;;;;;;4.70;3.35;;;;;;;-3.27;100.00;101570.34;4955288;29;20464;-90
2024/01/19 05:20:10;;;;;;;4.68;3.20;;;;;;;-3.30;100.00;101580.34;4955268;29;20028;-90
2024/01/19 05:22:36;;;;;;;5.80;3.50;;;;;;;-3.35;100.00;101579.19;4955431;29;20023;-90
2024/01/19 05:25:02;;;;;;;6.53;3.70;;;;;;;-3.39;100.00;101573.88;4955199;29;20024;-90
2024/01/19 05:27:29;;;;;;;6.88;3.70;;;;;;;-3.39;100.00;101584.03;4955141;29;20034;-91
2024/01/19 05:29:54;;;;;;;6.72;3.80;;;;;;;-3.38;100.00;101590.84;4954938;29;20125;-90
2024/01/19 05:32:20;;;;;;;4.43;3.33;;;;;;;-3.42;100.00;101588.16;4954869;28;20075;-90
2024/01/19 05:34:45;;;;;;;6.07;3.42;;;;;;;-3.38;100.00;101601.00;4955378;29;20023;-90
2024/01/19 05:37:10;;;;;;;4.45;3.20;;;;;;;-3.39;100.00;101607.78;4955380;29;20059;-90
2024/01/19 05:39:36;;;;;;;4.90;3.25;;;;;;;-3.42;100.00;101610.13;4956205;28;20023;-89
2024/01/19 05:42:01;;;;;;;5.97;3.20;;;;;;;-3.41;100.00;101619.50;4958627;28;20428;-90
2024/01/19 05:44:26;;;;;;;4.95;3.17;;;;;;;-3.39;100.00;101633.16;4958828;29;20037;-90
2024/01/19 05:46:52;;;;;;;5.03;2.83;;;;;;;-3.40;100.00;101641.56;4959086;29;20042;-90
2024/01/19 05:49:17;;;;;;;4.75;2.90;;;;;;;-3.46;100.00;101631.94;4958447;29;20027;-90
2024/01/19 05:51:43;;;;;;;5.22;3.08;;;;;;;-3.44;100.00;101640.53;4958705;29;20034;-90
2024/01/19 05:54:08;;;;;;;4.55;3.30;;;;;;;-3.43;100.00;101644.78;4958596;29;20038;-90
2024/01/19 05:56:33;;;;;;;5.53;3.13;;;;;;;-3.44;100.00;101648.13;4959260;29;20093;-91
2024/01/19 05:58:58;;;;;;;5.00;2.95;;;;;;;-3.37;100.00;101667.09;4958793;29;20035;-90
2024/01/19 06:01:24;;;;;;;3.92;2.90;;;;;;;-3.35;100.00;101669.72;4965608;23;20121;-90
2024/01/19 06:03:49;;;;;;;5.65;3.28;;;;;;;-3.30;100.00;101673.38;4958572;29;20110;-91
2024/01/19 06:06:14;;;;;;;5.90;3.60;;;;;;;-3.28;100.00;101676.88;4958951;29;20109;-89
2024/01/19 06:08:40;;;;;;;4.93;3.30;;;;;;;-3.23;100.00;101674.59;4958701;29;20038;-91
2024/01/19 06:11:05;;;;;;;6.50;3.40;;;;;;;-3.24;100.00;101678.81;4959243;29;20086;-90
2024/01/19 06:13:31;;;;;;;6.57;3.42;;;;;;;-3.21;100.00;101698.41;4958981;29;20051;-91
2024/01/19 06:15:56;;;;;;;7.20;3.70;;;;;;;-3.20;100.00;101697.63;4959248;29;20102;-91
2024/01/19 06:18:21;;;;;;;7.22;3.95;;;;;;;-3.13;100.00;101704.75;4959052;29;20063;-90
2024/01/19 06:20:47;;;;;;;5.32;3.50;;;;;;;-3.12;100.00;101707.41;4959486;29;20026;-90
2024/01/19 06:23:13;;;;;;;5.47;3.33;;;;;;;-3.09;100.00;101719.38;4959391;29;20043;-91
2024/01/19 06:25:39;;;;;;;6.28;3.70;;;;;;;-3.08;100.00;101725.31;4959937;29;20031;-91
2024/01/19 06:28:09;;;;;;;5.38;3.40;;;;;;;-3.16;100.00;101713.09;4960660;29;20038;-91
2024/01/19 06:30:35;;;;;;;7.43;4.13;;;;;;;-3.09;100.00;101714.31;4961973;29;20024;-90
2024/01/19 06:33:01;;;;;;;6.07;3.60;;;;;;;-3.03;100.00;101726.47;4964287;29;20038;-90
2024/01/19 06:35:26;;;;;;;4.50;3.23;;;;;;;-3.02;100.00;101731.63;4966817;29;20034;-90
2024/01/19 06:37:52;;;;;;;5.20;3.20;;;;;;;-3.00;100.00;101731.72;4970582;29;20282;-92
2024/01/19 06:40:18;;;;;;;5.47;3.40;;;;;;;-3.04;100.00;101730.66;4963580;29;20035;-91
2024/01/19 06:42:44;;;;;;;5.78;3.42;;;;;;;-2.99;100.00;101738.56;4957694;29;20097;-91
2024/01/19 06:45:09;;;;;;;5.20;3.23;;;;;;;-2.99;100.00;101736.00;4957311;29;20086;-92
2024/01/19 06:47:35;;;;;;;6.22;3.20;;;;;;;-3.05;100.00;101725.50;4957672;29;20039;-91
2024/01/19 06:50:00;;;;;;;4.95;3.30;;;;;;;-3.04;100.00;101732.34;4957429;29;20031;-91
2024/01/19 06:52:25;;;;;;;4.05;2.90;;;;;;;-3.08;100.00;101731.28;4956238;28;20328;-91
2024/01/19 06:54:51;;;;;;;4.18;2.90;;;;;;;-3.14;100.00;101721.69;4957275;29;20483;-91
2024/01/19 06:57:16;;;;;;;3.50;2.70;;;;;;;-3.10;100.00;101743.88;4957074;29;20030;-91
2024/01/19 06:59:41;;;;;;;4.28;2.70;;;;;;;-3.13;100.00;101748.81;4956846;28;20138;-87
2024/01/19 07:02:07;;;;;;;4.43;2.70;;;;;;;-3.16;100.00;101750.31;4956719;29;20031;-93
2024/01/19 07:04:32;;;;;;;4.43;2.90;;;;;;;-3.19;100.00;101751.00;4957242;29;20031;-92
2024/01/19 07:06:58;;;;;;;4.28;2.78;;;;;;;-3.26;100.00;101747.25;4957017;29;20471;-94
2024/01/19 07:09:23;;;;;;;3.85;2.70;;;;;;;-3.23;100.00;101763.44;4956272;29;20050;-87
2024/01/19 07:11:49;;;;;;;5.18;3.00;;;;;;;-3.29;100.00;101761.44;4956308;29;20066;-91
2024/01/19 07:14:14;;;;;;;3.88;2.70;;;;;;;-3.39;100.00;101752.44;4956376;29;20467;-91
2024/01/19 07:16:40;;;;;;;4.45;2.80;;;;;;;-3.34;100.00;101776.41;4956934;29;20027;-91
2024/01/19 07:19:05;;;;;;;4.93;3.08;;;;;;;-3.34;100.00;101788.25;4956178;29;20573;-90
2024/01/19 07:21:35;;;;;;;4.32;2.85;;;;;;;-3.37;100.00;101788.94;4956320;29;20059;-90
2024/01/19 07:24:00;;;;;;;5.55;3.00;;;;;;;-3.40;100.00;101793.84;4956705;29;20111;-91
2024/01/19 07:26:25;;;;;;;4.88;3.20;;;;;;;-3.42;100.00;101803.91;4956025;29;20118;-91
2024/01/19 07:28:51;;;;;;;5.20;3.20;;;;;;;-3.43;100.00;101793.66;4955407;29;20483;-91
2024/01/19 07:31:16;;;;;;;5.15;3.30;;;;;;;-3.48;100.00;101789.97;4956323;29;20027;-90
2024/01/19 07:33:41;;;;;;;4.57;3.17;;;;;;;-3.48;100.00;101798.50;4956269;29;20053;-90
2024/01/19 07:36:07;;;;;;;4.30;3.00;;;;;;;-3.47;100.00;101796.81;4956348;29;20035;-91
2024/01/19 07:38:32;;;;;;;6.03;3.78;;;;;;;-3.46;100.00;101803.63;4956302;29;20546;-91
2024/01/19 07:40:58;;;;;;;6.53;3.42;;;;;;;-3.49;100.00;101808.56;4956653;29;20027;-90
2024/01/19 07:43:24;;;;;;;4.40;3.30;;;;;;;-3.57;100.00;101795.41;4956141;29;20035;-90
2024/01/19 07:45:49;;;;;;;5.63;3.40;;;;;;;-3.51;100.00;101807.59;4956475;29;20031;-90
2024/01/19 07:48:14;;;;;;;6.38;3.50;;;;;;;-3.66;100.00;101790.69;4957398;29;20476;-87
2024/01/19 07:50:39;;;;;;;5.30;3.40;;;;;;;-3.58;100.00;101813.97;4954746;29;20039;-89
2024/01/19 07:53:05;;;;;;;5.30;3.33;;;;;;;-3.54;100.00;101825.16;4956136;29;20035;-90
2024/01/19 07:55:30;;;;;;;5.72;3.50;;;;;;;-3.55;100.00;101828.50;4955500;29;20030;-90
2024/01/19 07:57:55;;;;;;;5.07;3.03;;;;;;;-3.55;100.00;101831.03;4955365;29;20039;-90
2024/01/19 08:00:20;;;;;;;4.60;3.20;;;;;;;-3.56;100.00;101837.78;4954524;29;20047;-90
2024/01/19 08:02:46;;;;;;;4.10;3.00;;;;;;;-3.55;100.00;101838.63;4954249;28;20034;-90
2024/01/19 08:05:11;;;;;;;4.40;3.03;;;;;;;-3.55;100.00;101843.72;4955337;29;20039;-90
2024/01/19 08:07:37;;;;;;;4.07;3.10;;;;;;;-3.62;100.00;101833.22;4955083;29;20042;-87
2024/01/19 08:10:03;;;;;;;5.50;3.05;;;;;;;-3.59;100.00;101842.66;4955265;29;20034;-89
2024/01/19 08:12:28;;;;;;;4.53;2.90;;;;;;;-3.59;100.00;101850.28;4955705;29;20118;-92
2024/01/19 08:14:56;;;;;;;6.90;3.60;;;;;;;-3.55;100.00;101854.75;4955106;29;20299;-91
2024/01/19 08:17:22;;;;;;;5.43;3.10;;;;;;;-3.51;100.00;101864.28;4955366;29;20191;-90
2024/01/19 08:19:47;;;;;;;4.65;3.00;;;;;;;-3.51;100.00;101856.66;4955998;29;20070;-91
2024/01/19 08:22:12;;;;;;;4.25;2.92;;;;;;;-3.51;100.00;101866.81;4954988;29;20035;-91
2024/01/19 08:24:38;;;;;;;3.90;2.88;;;;;;;-3.48;100.00;101874.63;4955592;29;20027;-93
2024/01/19 08:27:04;;;;;;;4.35;3.00;;;;;;;-3.45;100.00;101872.28;4954073;29;20082;-85
2024/01/19 08:29:32;;;;;;;5.90;3.40;;;;;;;-3.41;100.00;101871.66;4954971;29;20185;-92
2024/01/19 08:31:57;;;;;;;8.15;3.65;;;;;;;-3.44;100.00;101855.38;4955219;29;20086;-89
2024/01/19 08:34:23;;;;;;;7.63;3.97;;;;;;;-3.35;100.00;101875.34;4955213;29;20019;-91
2024/01/19 08:36:48;;;;;;;7.68;3.70;;;;;;;-3.35;100.00;101865.19;4954806;29;20484;-90
2024/01/19 08:39:14;;;;;;;6.75;3.63;;;;;;;-3.29;100.00;101880.75;4953967;29;20027;-89
2024/01/19 08:41:43;;;;;;;7.47;3.72;;;;;;;-3.30;100.00;101877.38;4954660;29;20030;-89
2024/01/19 08:44:08;;;;;;;8.65;3.75;;;;;;;-3.23;100.00;101888.75;4953652;29;20484;-87
2024/01/19 08:46:34;;;;;;;7.18;3.50;;;;;;;-3.23;100.00;101885.31;4954266;29;20101;-87
2024/01/19 08:49:00;;;;;;;6.28;3.53;;;;;;;-3.15;100.00;101882.44;4953497;29;20034;-87
2024/01/19 08:51:28;;;;;;;7.32;3.67;;;;;;;-3.10;100.00;101885.25;4952654;29;20391;-87
2024/01/19 08:53:53;;;;;;;5.72;3.33;;;;;;;-3.04;100.00;101892.34;4953778;29;20114;-87
2024/01/19 08:56:20;;;;;;;6.00;3.58;;;;;;;-3.03;100.00;101892.41;4953892;29;20106;-87
2024/01/19 08:58:46;;;;;;;6.32;3.33;;;;;;;-2.96;100.00;101901.28;4953151;29;20031;-87
2024/01/19 09:01:20;;;;;;;4.63;3.10;;;;;;;-2.89;100.00;101897.41;4953469;28;20047;-90
2024/01/19 09:03:46;;;;;;;6.18;3.20;;;;;;;-2.83;100.00;101906.25;4954695;29;20031;-90
2024/01/19 09:06:11;;;;;;;5.88;3.50;;;;;;;-2.77;100.00;101909.97;4953943;29;20130;-88
2024/01/19 09:08:41;;;;;;;4.45;3.00;;;;;;;-2.72;100.00;101916.16;4953896;29;20464;-87
2024/01/19 09:11:08;;;;;;;5.50;3.25;;;;;;;-2.66;100.00;101921.59;4953115;29;20142;-87
2024/01/19 09:13:33;;;;;;;5.78;3.38;;;;;;;-2.60;100.00;101914.31;4953206;28;20031;-85
2024/01/19 09:15:59;;;;;;;5.50;3.30;;;;;;;-2.51;100.00;101924.97;4956581;29;20396;-86
2024/01/19 09:18:24;;;;;;;4.55;3.20;;;;;;;-2.45;100.00;101929.53;4957243;29;20141;-86
2024/01/19 09:20:50;;;;;;;5.90;3.17;;;;;;;-2.40;100.00;101930.69;4956467;29;20027;-86
2024/01/19 09:23:15;;;;;;;4.28;3.10;;;;;;;-2.31;100.00;101942.13;4956619;29;20055;-87
2024/01/19 09:25:40;;;;;;;4.50;3.20;;;;;;;-2.24;100.00;101946.75;4957131;29;20027;-87
2024/01/19 09:28:05;;;;;;;4.72;2.97;;;;;;;-2.19;100.00;101945.34;4956292;29;20035;-86
2024/01/19 09:30:31;;;;;;;6.53;3.88;;;;;;;-2.10;100.00;101952.63;4957695;29;20035;-91
2024/01/19 09:32:56;;;;;;;7.35;4.25;;;;;;;-2.06;100.00;101947.78;4958953;29;20074;-91
2024/01/19 09:35:21;;;;;;;6.93;4.00;;;;;;;-2.02;100.00;101951.34;4957816;29;20171;-92
2024/01/19 09:37:47;;;;;;;6.45;3.88;;;;;;;-1.93;100.00;101964.56;4957841;29;20035;-92
2024/01/19 09:40:12;;;;;;;6.07;3.50;;;;;;;-1.86;100.00;101964.09;4957876;29;20035;-93
2024/01/19 09:42:40;;;;;;;6.10;3.90;;;;;;;-1.77;100.00;101967.94;4958195;29;20046;-92
2024/01/19 09:45:07;;;;;;;7.50;4.10;;;;;;;-1.74;100.00;101961.34;4956689;29;20019;-92
2024/01/19 09:47:49;;;;;;;6.50;3.90;;;;;;;-1.66;100.00;101969.41;4958168;29;20468;-91
2024/01/19 09:50:36;;;;;;;6.32;3.80;;;;;;;-1.54;100.00;101975.94;4959829;29;20074;-92
2024/01/19 09:53:27;;;;;;;7.70;4.25;;;;;;;-1.53;100.00;101970.03;4968062;29;20482;-93
2024/01/19 09:55:52;;;;;;;6.55;4.20;;;;;;;-1.45;100.00;101972.19;4958361;29;20031;-92
2024/01/19 09:58:35;;;;;;;7.15;4.00;;;;;;;-1.44;100.00;101968.84;4958436;29;20078;-91
2024/01/19 10:01:01;;;;;;;5.45;3.55;;;;;;;-1.32;100.00;101978.81;4960058;28;20054;-91
2024/01/19 10:03:27;;;;;;;5.50;3.67;;;;;;;-1.25;100.00;101985.09;4958262;29;20034;-91
2024/01/19 10:06:13;;;;;;;8.63;4.53;;;;;;;-1.02;100.00;102003.22;4958820;29;20023;-91
2024/01/19 10:08:40;;;;;;;7.75;3.92;;;;;;;-1.03;100.00;101988.72;4958440;29;20035;-91
2024/01/19 10:11:22;;;;;;;6.57;3.88;;;;;;;-0.93;100.00;101996.03;4959370;29;20035;-91
2024/01/19 10:13:50;;;;;;;7.22;3.67;;;;;;;-0.86;100.00;101997.22;4959775;29;20020;-91
2024/01/19 10:16:16;;;;;;;6.97;3.70;;;;;;;-0.80;100.00;101990.78;4958937;29;20059;-91
2024/01/19 10:18:58;;;;;;;6.90;3.92;;;;;;;-0.60;100.00;102005.28;4959693;29;20027;-91
2024/01/19 10:21:30;;;;;;;6.55;3.85;;;;;;;-0.53;100.00;102005.66;4948609;29;20035;-93
2024/01/19 10:24:20;;;;;;;6.80;3.95;;;;;;;-0.41;100.00;102009.59;4960774;29;20039;-91
2024/01/19 10:27:06;;;;;;;10.93;5.00;;;;;;;-0.39;100.00;102006.31;4962227;28;20031;-91
2024/01/19 10:29:31;;;;;;;6.47;4.30;;;;;;;-0.28;100.00;102011.09;4962909;29;20035;-89
2024/01/19 10:32:09;;;;;;;7.15;4.60;;;;;;;-0.24;100.00;102005.31;4966717;29;20111;-91
2024/01/19 10:34:34;;;;;;;9.43;4.95;;;;;;;-0.21;100.00;102000.38;4972743;29;20031;-93
2024/01/19 10:37:21;;;;;;;9.85;5.28;;;;;;;-0.22;100.00;101994.38;4958172;29;20024;-90
2024/01/19 10:40:18;;;;;;;9.32;5.05;;;;;;;0.02;100.00;102016.75;4959294;29;20051;-89
2024/01/19 10:43:26;;;;;;;9.52;4.72;;;;;;;0.11;100.00;102022.28;4957583;29;20542;-94
2024/01/19 10:45:52;;;;;;;7.45;4.45;;;;;;;0.19;100.00;102011.56;4958003;29;20043;-95
2024/01/19 10:48:25;;;;;;;8.73;4.70;;;;;;;0.28;100.00;102015.41;4957279;29;20023;-94
2024/01/19 10:51:01;;;;;;;8.55;4.78;;;;;;;0.32;100.00;102020.66;4957332;29;20066;-93
2024/01/19 10:53:26;;;;;;;8.15;4.60;;;;;;;0.38;100.00;102020.97;4957983;29;20182;-88
2024/01/19 10:55:52;;;;;;;7.80;4.10;;;;;;;0.43;100.00;102016.91;4958182;29;20569;-96
2024/01/19 10:58:17;;;;;;;8.13;4.40;;;;;;;0.56;100.00;102018.38;4959715;29;20360;-96
2024/01/19 11:00:42;;;;;;;8.85;4.85;;;;;;;0.55;100.00;102020.03;4959022;28;20373;-96
2024/01/19 11:03:08;;;;;;;8.57;4.38;;;;;;;0.65;100.00;102025.53;4963780;29;20023;-96
2024/01/19 11:05:34;;;;;;;7.65;4.13;;;;;;;0.74;100.00;102025.94;4965005;29;20023;-96
2024/01/19 11:08:00;;;;;;;11.43;5.57;;;;;;;0.72;100.00;102019.91;4970601;29;20083;-96
2024/01/19 11:10:28;;;;;;;9.98;5.30;;;;;;;0.74;100.00;102019.19;4968980;29;20318;-96
2024/01/19 11:13:01;;;;;;;10.00;5.10;;;;;;;0.81;100.00;102025.44;4966818;29;20015;-96
2024/01/19 11:15:47;;;;;;;13.15;5.57;;;;;;;0.85;100.00;102023.88;4966257;28;20027;-95